createdAt,value
2022-10-06T00:00:52.480Z,13.43
2022-10-06T00:01:53.974Z,13.39
2022-10-06T00:02:55.549Z,13.38
2022-10-06T00:03:57.093Z,13.36
2022-10-06T00:04:58.509Z,13.33
2022-10-06T00:06:02.895Z,13.39
2022-10-06T00:07:04.421Z,13.30
2022-10-06T00:08:09.961Z,13.30
2022-10-06T00:09:11.617Z,13.40
2022-10-06T00:10:13.618Z,13.38
2022-10-06T00:11:16.033Z,13.40
2022-10-06T00:12:17.519Z,13.35
2022-10-06T00:13:18.974Z,13.39
2022-10-06T00:14:20.452Z,13.35
2022-10-06T00:15:24.248Z,13.33
2022-10-06T00:16:25.672Z,13.32
2022-10-06T00:17:27.129Z,13.28
2022-10-06T00:18:29.967Z,13.30
2022-10-06T00:19:31.724Z,13.28
2022-10-06T00:20:33.392Z,13.30
2022-10-06T00:21:36.276Z,13.22
2022-10-06T00:22:40.147Z,13.30
2022-10-06T00:23:41.662Z,13.24
2022-10-06T00:24:43.097Z,13.24
2022-10-06T00:25:44.780Z,13.15
2022-10-06T00:26:46.268Z,13.22
2022-10-06T00:27:49.392Z,13.26
2022-10-06T00:28:50.982Z,13.26
2022-10-06T00:29:52.518Z,13.28
2022-10-06T00:30:54.245Z,13.23
2022-10-06T00:31:55.742Z,13.28
2022-10-06T00:32:58.822Z,13.25
2022-10-06T00:34:00.301Z,13.19
2022-10-06T00:35:01.801Z,13.25
2022-10-06T00:36:03.459Z,13.28
2022-10-06T00:37:06.263Z,13.29
2022-10-06T00:38:07.722Z,13.15
2022-10-06T00:39:09.299Z,13.20
2022-10-06T00:40:10.903Z,13.20
2022-10-06T00:41:14.505Z,13.30
2022-10-06T00:42:24.304Z,13.29
2022-10-06T00:43:47.725Z,13.30
2022-10-06T00:44:49.397Z,13.33
2022-10-06T00:45:51.005Z,13.30
2022-10-06T00:46:53.477Z,13.32
2022-10-06T00:47:59.394Z,13.32
2022-10-06T00:49:07.218Z,13.28
2022-10-06T00:50:11.962Z,13.36
2022-10-06T00:51:14.018Z,13.39
2022-10-06T00:52:20.324Z,13.38
2022-10-06T00:53:23.542Z,13.31
2022-10-06T00:54:25.523Z,13.28
2022-10-06T00:55:26.992Z,13.31
2022-10-06T00:56:28.521Z,13.34
2022-10-06T00:57:30.273Z,13.29
2022-10-06T00:58:31.918Z,13.17
2022-10-06T00:59:34.094Z,13.23
2022-10-06T01:00:36.073Z,13.24
2022-10-06T01:01:41.445Z,13.21
2022-10-06T01:02:48.155Z,13.22
2022-10-06T01:03:55.628Z,13.22
2022-10-06T01:04:59.827Z,13.16
2022-10-06T01:06:02.273Z,13.15
2022-10-06T01:07:04.107Z,13.16
2022-10-06T01:08:07.559Z,13.18
2022-10-06T01:09:09.061Z,13.21
2022-10-06T01:10:10.535Z,13.13
2022-10-06T01:11:12.935Z,13.09
2022-10-06T01:12:15.312Z,13.16
2022-10-06T01:13:18.073Z,13.17
2022-10-06T01:14:21.452Z,13.10
2022-10-06T01:15:24.497Z,13.17
2022-10-06T01:16:26.614Z,13.08
2022-10-06T01:17:32.919Z,13.15
2022-10-06T01:18:38.215Z,13.15
2022-10-06T01:19:48.167Z,13.13
2022-10-06T01:20:55.366Z,13.11
2022-10-06T01:22:01.910Z,13.10
2022-10-06T01:23:06.880Z,13.12
2022-10-06T01:24:08.417Z,13.08
2022-10-06T01:25:12.401Z,13.04
2022-10-06T01:26:16.853Z,13.07
2022-10-06T01:28:47.060Z,12.99
2022-10-06T01:29:52.084Z,13.00
2022-10-06T01:30:54.976Z,13.01
2022-10-06T01:31:56.508Z,13.03
2022-10-06T01:32:58.318Z,13.01
2022-10-06T01:33:59.875Z,13.04
2022-10-06T01:35:01.345Z,13.07
2022-10-06T01:36:03.009Z,12.96
2022-10-06T01:37:04.488Z,13.03
2022-10-06T01:38:07.316Z,12.94
2022-10-06T01:39:08.743Z,13.04
2022-10-06T01:40:10.463Z,13.02
2022-10-06T01:41:11.925Z,13.04
2022-10-06T01:42:13.448Z,13.04
2022-10-06T01:43:14.923Z,13.08
2022-10-06T01:44:16.404Z,13.00
2022-10-06T01:45:18.079Z,13.02
2022-10-06T01:46:19.573Z,13.02
2022-10-06T01:47:21.036Z,12.95
2022-10-06T01:48:23.253Z,13.08
2022-10-06T01:49:24.716Z,13.05
2022-10-06T01:50:26.329Z,13.00
2022-10-06T01:51:27.764Z,13.01
2022-10-06T01:52:29.231Z,13.04
2022-10-06T01:53:32.128Z,13.04
2022-10-06T01:54:33.651Z,13.03
2022-10-06T01:55:35.151Z,12.99
2022-10-06T01:56:36.584Z,12.98
2022-10-06T01:57:39.249Z,12.94
2022-10-06T01:58:40.759Z,12.98
2022-10-06T01:59:42.189Z,12.90
2022-10-06T02:00:43.649Z,12.93
2022-10-06T02:01:45.209Z,12.88
2022-10-06T02:02:46.732Z,12.84
2022-10-06T02:03:48.167Z,12.89
2022-10-06T02:04:49.647Z,12.81
2022-10-06T02:05:51.112Z,12.92
2022-10-06T02:06:52.773Z,12.90
2022-10-06T02:07:54.227Z,12.89
2022-10-06T02:08:57.104Z,12.90
2022-10-06T02:09:58.549Z,12.80
2022-10-06T02:11:04.833Z,12.86
2022-10-06T02:12:06.333Z,12.89
2022-10-06T02:13:07.788Z,12.88
2022-10-06T02:14:09.283Z,12.82
2022-10-06T02:15:10.959Z,12.87
2022-10-06T02:16:12.565Z,12.90
2022-10-06T02:17:14.036Z,12.87
2022-10-06T02:18:15.462Z,12.79
2022-10-06T02:19:16.948Z,12.77
2022-10-06T02:20:18.493Z,12.79
2022-10-06T02:21:22.541Z,12.71
2022-10-06T02:22:24.022Z,12.80
2022-10-06T02:23:25.561Z,12.68
2022-10-06T02:24:28.428Z,12.72
2022-10-06T02:25:29.940Z,12.68
2022-10-06T02:26:31.744Z,12.74
2022-10-06T02:27:33.248Z,12.63
2022-10-06T02:28:35.248Z,12.65
2022-10-06T02:29:36.770Z,12.64
2022-10-06T02:30:38.258Z,12.62
2022-10-06T02:31:39.794Z,12.70
2022-10-06T02:32:42.566Z,12.72
2022-10-06T02:33:44.018Z,12.70
2022-10-06T02:34:45.458Z,12.64
2022-10-06T02:35:47.055Z,12.68
2022-10-06T02:36:48.531Z,12.60
2022-10-06T02:37:50.019Z,12.59
2022-10-06T02:38:51.443Z,12.60
2022-10-06T02:39:54.241Z,12.59
2022-10-06T02:40:55.757Z,12.63
2022-10-06T02:41:57.247Z,12.61
2022-10-06T02:42:58.785Z,12.62
2022-10-06T02:44:00.200Z,12.63
2022-10-06T02:45:01.731Z,12.70
2022-10-06T02:46:06.105Z,12.73
2022-10-06T02:47:11.207Z,12.66
2022-10-06T02:48:12.619Z,12.68
2022-10-06T02:49:14.082Z,12.70
2022-10-06T02:50:15.536Z,12.75
2022-10-06T02:51:18.955Z,12.66
2022-10-06T02:52:20.356Z,12.70
2022-10-06T02:53:21.819Z,12.74
2022-10-06T02:54:23.295Z,12.73
2022-10-06T02:55:26.198Z,12.73
2022-10-06T02:56:27.708Z,12.73
2022-10-06T02:57:29.500Z,12.74
2022-10-06T02:58:31.823Z,12.79
2022-10-06T02:59:33.768Z,12.73
2022-10-06T03:00:35.209Z,12.74
2022-10-06T03:01:36.755Z,12.73
2022-10-06T03:02:38.453Z,12.77
2022-10-06T03:03:40.724Z,12.74
2022-10-06T03:04:42.173Z,12.76
2022-10-06T03:05:43.614Z,12.72
2022-10-06T03:06:45.019Z,12.70
2022-10-06T03:07:46.494Z,12.70
2022-10-06T03:08:48.453Z,12.75
2022-10-06T03:09:49.966Z,12.72
2022-10-06T03:10:58.485Z,12.73
2022-10-06T03:11:59.999Z,12.79
2022-10-06T03:13:01.489Z,12.75
2022-10-06T03:14:03.763Z,12.67
2022-10-06T03:15:06.089Z,12.71
2022-10-06T03:16:14.872Z,12.68
2022-10-06T03:17:16.431Z,12.69
2022-10-06T03:18:17.856Z,12.69
2022-10-06T03:19:19.317Z,12.65
2022-10-06T03:20:20.753Z,12.72
2022-10-06T03:21:24.207Z,12.66
2022-10-06T03:22:25.663Z,12.71
2022-10-06T03:23:27.211Z,12.69
2022-10-06T03:24:28.711Z,12.68
2022-10-06T03:25:30.165Z,12.69
2022-10-06T03:26:35.227Z,12.71
2022-10-06T03:27:36.673Z,12.70
2022-10-06T03:28:38.169Z,12.74
2022-10-06T03:29:39.610Z,12.69
2022-10-06T03:30:41.036Z,12.66
2022-10-06T03:31:42.782Z,12.71
2022-10-06T03:32:44.264Z,12.71
2022-10-06T03:33:45.786Z,12.71
2022-10-06T03:34:47.242Z,12.69
2022-10-06T03:35:58.343Z,12.66
2022-10-06T03:36:59.761Z,12.70
2022-10-06T03:38:01.182Z,12.65
2022-10-06T03:39:04.152Z,12.60
2022-10-06T03:40:06.461Z,12.61
2022-10-06T03:41:09.922Z,12.55
2022-10-06T03:42:12.704Z,12.54
2022-10-06T03:43:14.112Z,12.58
2022-10-06T03:44:15.567Z,12.56
2022-10-06T03:45:17.041Z,12.55
2022-10-06T03:46:20.042Z,12.52
2022-10-06T03:47:21.531Z,12.48
2022-10-06T03:48:23.118Z,12.52
2022-10-06T03:49:24.589Z,12.51
2022-10-06T03:50:26.027Z,12.50
2022-10-06T03:51:29.971Z,12.46
2022-10-06T03:52:31.448Z,12.44
2022-10-06T03:53:35.049Z,12.44
2022-10-06T03:54:36.536Z,12.49
2022-10-06T03:55:37.986Z,12.46
2022-10-06T03:56:41.131Z,12.44
2022-10-06T03:57:43.888Z,12.46
2022-10-06T03:58:48.414Z,12.44
2022-10-06T03:59:49.849Z,12.48
2022-10-06T04:00:58.703Z,12.44
2022-10-06T04:02:00.254Z,12.42
2022-10-06T04:03:01.741Z,12.33
2022-10-06T04:04:04.263Z,12.38
2022-10-06T04:05:06.719Z,12.47
2022-10-06T04:06:12.225Z,12.44
2022-10-06T04:07:13.748Z,12.42
2022-10-06T04:08:15.212Z,12.46
2022-10-06T04:09:16.685Z,12.43
2022-10-06T04:10:18.087Z,12.51
2022-10-06T04:11:21.644Z,12.43
2022-10-06T04:12:23.081Z,12.40
2022-10-06T04:13:25.882Z,12.44
2022-10-06T04:14:27.321Z,12.49
2022-10-06T04:15:28.752Z,12.49
2022-10-06T04:16:31.645Z,12.51
2022-10-06T04:17:33.124Z,12.42
2022-10-06T04:18:34.592Z,12.49
2022-10-06T04:19:36.030Z,12.47
2022-10-06T04:20:37.653Z,12.49
2022-10-06T04:21:40.569Z,12.49
2022-10-06T04:22:41.995Z,12.48
2022-10-06T04:23:43.680Z,12.47
2022-10-06T04:24:45.139Z,12.40
2022-10-06T04:25:46.595Z,12.45
2022-10-06T04:26:48.146Z,12.42
2022-10-06T04:27:49.682Z,12.42
2022-10-06T04:28:52.877Z,12.35
2022-10-06T04:29:54.361Z,12.34
2022-10-06T04:30:56.956Z,12.31
2022-10-06T04:31:58.389Z,12.34
2022-10-06T04:32:59.852Z,12.38
2022-10-06T04:34:01.736Z,12.37
2022-10-06T04:35:03.266Z,12.32
2022-10-06T04:36:07.100Z,12.33
2022-10-06T04:37:08.559Z,12.33
2022-10-06T04:38:10.002Z,12.30
2022-10-06T04:39:12.775Z,12.29
2022-10-06T04:40:14.430Z,12.29
2022-10-06T04:41:18.176Z,12.22
2022-10-06T04:42:19.662Z,12.30
2022-10-06T04:43:21.228Z,12.30
2022-10-06T04:44:23.987Z,12.30
2022-10-06T04:45:25.454Z,12.29
2022-10-06T04:46:42.564Z,12.22
2022-10-06T04:47:48.272Z,12.21
2022-10-06T04:48:50.834Z,12.17
2022-10-06T04:49:52.283Z,12.22
2022-10-06T04:50:54.920Z,12.22
2022-10-06T04:51:56.448Z,12.21
2022-10-06T04:52:57.887Z,12.15
2022-10-06T04:53:59.366Z,12.25
2022-10-06T04:55:00.896Z,12.26
2022-10-06T04:56:04.957Z,12.18
2022-10-06T04:57:06.484Z,12.24
2022-10-06T04:58:08.092Z,12.24
2022-10-06T04:59:09.642Z,12.23
2022-10-06T05:00:15.036Z,12.22
2022-10-06T05:01:19.418Z,12.17
2022-10-06T05:02:21.090Z,12.30
2022-10-06T05:03:22.636Z,12.31
2022-10-06T05:04:24.104Z,12.26
2022-10-06T05:05:25.626Z,12.26
2022-10-06T05:06:28.820Z,12.13
2022-10-06T05:07:30.344Z,12.11
2022-10-06T05:08:32.529Z,12.23
2022-10-06T05:09:34.276Z,12.26
2022-10-06T05:10:35.703Z,12.18
2022-10-06T05:11:37.483Z,12.26
2022-10-06T05:12:38.983Z,12.32
2022-10-06T05:13:40.613Z,12.27
2022-10-06T05:14:42.036Z,12.40
2022-10-06T05:15:55.354Z,12.33
2022-10-06T05:16:56.808Z,12.31
2022-10-06T05:17:58.297Z,12.31
2022-10-06T05:19:00.043Z,12.31
2022-10-06T05:20:01.489Z,12.26
2022-10-06T05:21:06.793Z,12.30
2022-10-06T05:22:08.390Z,12.27
2022-10-06T05:23:09.830Z,12.10
2022-10-06T05:24:11.343Z,12.04
2022-10-06T05:25:12.883Z,12.05
2022-10-06T05:26:16.179Z,12.15
2022-10-06T05:27:17.645Z,12.17
2022-10-06T05:28:19.625Z,12.17
2022-10-06T05:29:21.121Z,12.23
2022-10-06T05:30:22.591Z,12.12
2022-10-06T05:31:27.470Z,12.15
2022-10-06T05:32:31.472Z,12.16
2022-10-06T05:33:37.432Z,12.19
2022-10-06T05:34:38.891Z,12.12
2022-10-06T05:35:50.908Z,12.15
2022-10-06T05:36:52.432Z,12.18
2022-10-06T05:37:54.555Z,12.19
2022-10-06T05:38:56.567Z,12.19
2022-10-06T05:39:58.031Z,12.15
2022-10-06T05:41:03.611Z,12.12
2022-10-06T05:42:05.181Z,12.14
2022-10-06T05:43:06.587Z,12.12
2022-10-06T05:44:08.043Z,12.16
2022-10-06T05:45:10.303Z,12.09
2022-10-06T05:46:14.484Z,12.13
2022-10-06T05:47:17.429Z,12.16
2022-10-06T05:48:18.884Z,12.11
2022-10-06T05:49:20.412Z,12.23
2022-10-06T05:50:21.828Z,12.24
2022-10-06T05:51:30.103Z,12.28
2022-10-06T05:52:32.224Z,12.27
2022-10-06T05:53:35.367Z,12.27
2022-10-06T05:54:36.811Z,12.31
2022-10-06T05:55:38.280Z,12.28
2022-10-06T05:56:39.826Z,12.35
2022-10-06T05:57:41.294Z,12.48
2022-10-06T05:58:44.347Z,12.46
2022-10-06T05:59:45.794Z,12.44
2022-10-06T06:00:47.220Z,12.49
2022-10-06T06:01:48.832Z,12.43
2022-10-06T06:02:51.675Z,12.44
2022-10-06T06:03:55.179Z,12.54
2022-10-06T06:04:56.603Z,12.60
2022-10-06T06:05:58.085Z,12.54
2022-10-06T06:06:59.517Z,12.54
2022-10-06T06:08:00.937Z,12.52
2022-10-06T06:09:05.102Z,12.54
2022-10-06T06:10:07.264Z,12.62
2022-10-06T06:11:09.038Z,12.66
2022-10-06T06:12:10.483Z,12.61
2022-10-06T06:13:11.922Z,12.65
2022-10-06T06:14:15.127Z,12.72
2022-10-06T06:15:16.633Z,12.64
2022-10-06T06:16:18.141Z,12.68
2022-10-06T06:17:19.689Z,12.68
2022-10-06T06:18:22.455Z,12.70
2022-10-06T06:19:28.345Z,12.74
2022-10-06T06:20:30.559Z,12.73
2022-10-06T06:21:32.794Z,12.70
2022-10-06T06:22:34.229Z,12.74
2022-10-06T06:23:37.817Z,12.74
2022-10-06T06:24:39.270Z,12.63
2022-10-06T06:25:40.699Z,12.65
2022-10-06T06:26:42.103Z,12.67
2022-10-06T06:27:43.558Z,12.59
2022-10-06T06:28:45.400Z,12.66
2022-10-06T06:29:46.880Z,12.56
2022-10-06T06:30:48.325Z,12.53
2022-10-06T06:31:49.811Z,12.39
2022-10-06T06:32:51.294Z,12.41
2022-10-06T06:33:55.636Z,12.58
2022-10-06T06:34:57.052Z,12.61
2022-10-06T06:35:58.572Z,12.72
2022-10-06T06:37:06.198Z,12.74
2022-10-06T06:38:09.094Z,12.76
2022-10-06T06:39:12.274Z,12.93
2022-10-06T06:40:13.765Z,13.05
2022-10-06T06:41:16.988Z,13.00
2022-10-06T06:42:18.444Z,13.10
2022-10-06T06:43:19.927Z,13.18
2022-10-06T06:44:21.525Z,13.23
2022-10-06T06:45:22.928Z,13.12
2022-10-06T06:46:26.982Z,13.17
2022-10-06T06:47:28.514Z,13.21
2022-10-06T06:48:30.291Z,13.32
2022-10-06T06:49:33.214Z,13.40
2022-10-06T06:50:34.688Z,13.36
2022-10-06T06:51:37.789Z,12.89
2022-10-06T06:52:39.533Z,12.83
2022-10-06T06:53:41.437Z,12.48
2022-10-06T06:54:43.021Z,12.59
2022-10-06T06:55:48.689Z,12.93
2022-10-06T06:56:50.174Z,12.66
2022-10-06T06:57:51.638Z,13.11
2022-10-06T06:58:53.133Z,13.28
2022-10-06T06:59:54.571Z,13.45
2022-10-06T07:01:04.696Z,13.57
2022-10-06T07:02:06.163Z,13.63
2022-10-06T07:03:12.438Z,13.78
2022-10-06T07:04:15.370Z,13.40
2022-10-06T07:05:18.153Z,13.53
2022-10-06T07:06:20.238Z,13.70
2022-10-06T07:07:22.625Z,13.90
2022-10-06T07:08:24.067Z,13.97
2022-10-06T07:09:26.505Z,13.92
2022-10-06T07:10:27.943Z,13.98
2022-10-06T07:11:31.644Z,14.01
2022-10-06T07:12:33.118Z,14.18
2022-10-06T07:13:34.669Z,14.27
2022-10-06T07:14:36.137Z,14.33
2022-10-06T07:15:37.848Z,14.31
2022-10-06T07:16:39.674Z,14.49
2022-10-06T07:17:41.165Z,14.42
2022-10-06T07:18:42.679Z,14.54
2022-10-06T07:19:44.123Z,14.38
2022-10-06T07:20:46.917Z,14.33
2022-10-06T07:21:50.256Z,14.63
2022-10-06T07:22:51.761Z,14.65
2022-10-06T07:23:53.196Z,14.79
2022-10-06T07:24:55.646Z,14.84
2022-10-06T07:25:57.055Z,14.80
2022-10-06T07:26:58.487Z,14.82
2022-10-06T07:27:59.976Z,14.84
2022-10-06T07:29:01.449Z,15.07
2022-10-06T07:30:03.288Z,14.78
2022-10-06T07:31:04.859Z,14.87
2022-10-06T07:32:06.343Z,15.01
2022-10-06T07:33:07.885Z,15.02
2022-10-06T07:34:09.336Z,15.05
2022-10-06T07:35:11.549Z,15.13
2022-10-06T07:36:14.333Z,15.19
2022-10-06T07:37:16.108Z,15.29
2022-10-06T07:38:17.537Z,15.43
2022-10-06T07:39:19.000Z,15.55
2022-10-06T07:40:20.757Z,15.47
2022-10-06T07:41:22.747Z,15.68
2022-10-06T07:42:24.189Z,15.84
2022-10-06T07:43:25.616Z,15.95
2022-10-06T07:44:27.051Z,15.89
2022-10-06T07:45:29.570Z,15.87
2022-10-06T07:46:31.131Z,15.92
2022-10-06T07:47:33.024Z,16.10
2022-10-06T07:48:34.455Z,16.16
2022-10-06T07:49:36.292Z,16.31
2022-10-06T07:50:38.667Z,16.33
2022-10-06T07:51:41.451Z,16.34
2022-10-06T07:52:42.885Z,15.73
2022-10-06T07:53:44.711Z,15.80
2022-10-06T07:54:46.185Z,16.07
2022-10-06T07:55:48.033Z,16.07
2022-10-06T07:56:49.461Z,16.25
2022-10-06T07:57:50.901Z,15.96
2022-10-06T07:58:52.350Z,15.77
2022-10-06T07:59:53.781Z,15.91
2022-10-06T08:00:55.291Z,16.20
2022-10-06T08:01:56.799Z,16.09
2022-10-06T08:02:58.300Z,15.68
2022-10-06T08:03:59.794Z,16.08
2022-10-06T08:05:01.245Z,16.07
2022-10-06T08:06:03.274Z,16.35
2022-10-06T08:07:06.064Z,16.26
2022-10-06T08:08:07.511Z,16.43
2022-10-06T08:09:08.977Z,16.72
2022-10-06T08:10:10.377Z,16.99
2022-10-06T08:11:12.845Z,17.02
2022-10-06T08:12:14.324Z,16.99
2022-10-06T08:13:15.795Z,16.85
2022-10-06T08:14:17.267Z,16.63
2022-10-06T08:15:19.130Z,16.69
2022-10-06T08:16:22.240Z,16.56
2022-10-06T08:17:23.741Z,16.80
2022-10-06T08:18:45.571Z,16.63
2022-10-06T08:19:46.674Z,16.52
2022-10-06T08:20:48.165Z,16.49
2022-10-06T08:21:49.778Z,16.25
2022-10-06T08:22:52.550Z,16.38
2022-10-06T08:23:55.286Z,16.17
2022-10-06T08:25:05.856Z,16.18
2022-10-06T08:26:08.643Z,16.40
2022-10-06T08:27:10.083Z,16.34
2022-10-06T08:28:12.699Z,16.29
2022-10-06T08:29:14.170Z,16.12
2022-10-06T08:30:15.716Z,16.26
2022-10-06T08:31:18.748Z,16.42
2022-10-06T08:32:20.908Z,16.18
2022-10-06T08:33:22.369Z,16.28
2022-10-06T08:34:23.838Z,16.16
2022-10-06T08:35:25.275Z,16.45
2022-10-06T08:36:31.483Z,16.47
2022-10-06T08:37:34.049Z,16.71
2022-10-06T08:38:38.196Z,16.92
2022-10-06T08:39:39.627Z,17.12
2022-10-06T08:40:42.133Z,17.02
2022-10-06T08:41:45.731Z,16.87
2022-10-06T08:42:51.103Z,17.09
2022-10-06T08:43:58.237Z,17.32
2022-10-06T08:45:02.251Z,17.48
2022-10-06T08:46:04.179Z,17.68
2022-10-06T08:47:12.417Z,17.90
2022-10-06T08:48:17.530Z,18.08
2022-10-06T08:49:21.463Z,18.30
2022-10-06T08:50:25.666Z,18.33
2022-10-06T08:51:47.861Z,18.38
2022-10-06T08:52:59.593Z,18.54
2022-10-06T08:54:08.593Z,18.27
2022-10-06T08:55:23.365Z,18.36
2022-10-06T08:56:27.185Z,17.61
2022-10-06T08:57:36.751Z,17.11
2022-10-06T08:58:51.609Z,16.92
2022-10-06T08:59:53.348Z,16.64
2022-10-06T09:00:55.408Z,16.68
2022-10-06T09:01:56.993Z,16.62
2022-10-06T09:03:00.108Z,16.38
2022-10-06T09:04:04.989Z,16.31
2022-10-06T09:05:08.360Z,16.45
2022-10-06T09:06:18.918Z,16.19
2022-10-06T09:07:31.891Z,16.12
2022-10-06T09:08:42.424Z,15.94
2022-10-06T09:10:00.268Z,15.72
2022-10-06T09:11:22.002Z,15.74
2022-10-06T09:12:30.789Z,15.51
2022-10-06T09:13:37.125Z,15.44
2022-10-06T09:14:43.993Z,15.32
2022-10-06T09:15:48.991Z,15.17
2022-10-06T09:16:55.986Z,15.01
2022-10-06T09:18:01.719Z,15.04
2022-10-06T09:19:12.532Z,15.13
2022-10-06T09:20:19.280Z,14.94
2022-10-06T09:21:28.407Z,14.88
2022-10-06T09:22:31.483Z,15.06
2022-10-06T09:23:34.666Z,14.84
2022-10-06T09:24:42.418Z,14.88
2022-10-06T09:25:47.972Z,14.91
2022-10-06T09:26:51.477Z,14.98
2022-10-06T09:27:54.612Z,14.76
2022-10-06T09:28:56.820Z,14.74
2022-10-06T09:29:58.520Z,14.69
2022-10-06T09:31:01.431Z,14.83
2022-10-06T09:32:03.075Z,14.44
2022-10-06T09:33:05.945Z,14.52
2022-10-06T09:34:18.764Z,14.27
2022-10-06T09:35:22.464Z,14.21
2022-10-06T09:36:25.232Z,14.35
2022-10-06T09:37:27.529Z,14.60
2022-10-06T09:38:45.856Z,14.80
2022-10-06T09:39:49.231Z,14.65
2022-10-06T09:40:53.826Z,14.78
2022-10-06T09:41:55.589Z,14.65
2022-10-06T09:42:57.026Z,14.38
2022-10-06T09:44:01.357Z,14.48
2022-10-06T09:45:05.684Z,14.79
2022-10-06T09:46:29.762Z,15.10
2022-10-06T09:47:40.532Z,14.87
2022-10-06T09:48:41.949Z,15.20
2022-10-06T09:49:43.395Z,14.76
2022-10-06T09:50:44.845Z,14.83
2022-10-06T09:52:00.105Z,14.86
2022-10-06T09:53:10.561Z,14.91
2022-10-06T09:54:12.961Z,14.69
2022-10-06T09:55:16.421Z,14.97
2022-10-06T09:56:19.462Z,14.67
2022-10-06T09:57:25.306Z,14.40
2022-10-06T09:58:29.061Z,14.31
2022-10-06T09:59:39.141Z,14.62
2022-10-06T10:00:47.926Z,14.68
2022-10-06T10:01:53.504Z,14.74
2022-10-06T10:03:00.693Z,14.54
2022-10-06T10:04:20.096Z,14.87
2022-10-06T10:05:22.744Z,15.16
2022-10-06T10:06:26.584Z,15.22
2022-10-06T10:07:29.743Z,15.15
2022-10-06T10:08:31.310Z,14.97
2022-10-06T10:09:32.785Z,15.13
2022-10-06T10:10:35.231Z,15.20
2022-10-06T10:11:38.008Z,14.77
2022-10-06T10:12:49.519Z,14.91
2022-10-06T10:13:52.368Z,14.78
2022-10-06T10:14:56.654Z,14.73
2022-10-06T10:16:02.030Z,15.01
2022-10-06T10:17:09.421Z,15.20
2022-10-06T10:18:13.590Z,15.34
2022-10-06T10:19:26.008Z,15.25
2022-10-06T10:20:33.585Z,15.61
2022-10-06T10:21:35.433Z,15.73
2022-10-06T10:22:39.888Z,15.66
2022-10-06T10:23:52.183Z,15.74
2022-10-06T10:25:03.514Z,15.75
2022-10-06T10:26:07.805Z,15.85
2022-10-06T10:27:21.708Z,15.92
2022-10-06T10:28:38.427Z,15.87
2022-10-06T10:30:02.367Z,15.74
2022-10-06T10:31:11.177Z,15.87
2022-10-06T10:32:16.956Z,15.81
2022-10-06T10:33:26.699Z,15.80
2022-10-06T10:35:00.551Z,15.81
2022-10-06T10:36:03.985Z,15.81
2022-10-06T10:37:10.142Z,15.93
2022-10-06T10:38:16.855Z,15.84
2022-10-06T10:39:30.149Z,15.95
2022-10-06T10:40:35.788Z,16.09
2022-10-06T10:41:43.715Z,16.10
2022-10-06T10:42:49.839Z,16.09
2022-10-06T10:43:55.083Z,16.12
2022-10-06T10:45:00.183Z,16.10
2022-10-06T10:46:05.628Z,16.01
2022-10-06T10:47:14.819Z,16.02
2022-10-06T10:48:22.989Z,16.15
2022-10-06T10:49:27.606Z,16.33
2022-10-06T10:50:34.195Z,16.33
2022-10-06T10:51:40.705Z,16.02
2022-10-06T10:52:45.592Z,16.16
2022-10-06T10:53:51.382Z,16.20
2022-10-06T10:55:05.456Z,16.06
2022-10-06T10:56:09.759Z,15.82
2022-10-06T10:57:15.808Z,15.49
2022-10-06T10:58:23.680Z,15.58
2022-10-06T10:59:29.120Z,15.99
2022-10-06T11:00:36.341Z,15.75
2022-10-06T11:01:45.991Z,15.86
2022-10-06T11:02:48.025Z,15.64
2022-10-06T11:03:49.779Z,15.50
2022-10-06T11:04:54.746Z,15.51
2022-10-06T11:06:24.433Z,15.85
2022-10-06T11:07:33.343Z,15.74
2022-10-06T11:08:41.042Z,15.51
2022-10-06T11:09:52.681Z,15.63
2022-10-06T11:10:58.698Z,15.83
2022-10-06T11:12:15.077Z,15.87
2022-10-06T11:13:28.057Z,15.40
2022-10-06T11:14:45.776Z,15.40
2022-10-06T11:16:00.649Z,15.46
2022-10-06T11:17:08.810Z,15.51
2022-10-06T11:18:21.562Z,15.76
2022-10-06T11:19:34.862Z,15.98
2022-10-06T11:20:47.954Z,16.10
2022-10-06T11:21:57.564Z,16.24
2022-10-06T11:23:08.376Z,16.09
2022-10-06T11:24:16.385Z,16.17
2022-10-06T11:25:24.876Z,16.13
2022-10-06T11:26:50.821Z,15.95
2022-10-06T11:28:01.964Z,16.06
2022-10-06T11:29:15.409Z,16.14
2022-10-06T11:30:19.772Z,15.84
2022-10-06T11:31:30.105Z,16.18
2022-10-06T11:32:45.080Z,16.33
2022-10-06T11:33:49.567Z,16.50
2022-10-06T11:34:51.773Z,16.51
2022-10-06T11:35:53.554Z,16.14
2022-10-06T11:37:04.816Z,16.04
2022-10-06T11:38:15.347Z,15.78
2022-10-06T11:39:23.631Z,15.73
2022-10-06T11:40:36.574Z,15.70
2022-10-06T11:41:43.937Z,15.66
2022-10-06T11:42:52.671Z,15.68
2022-10-06T11:44:00.190Z,15.61
2022-10-06T11:45:05.431Z,15.74
2022-10-06T11:46:19.349Z,15.78
2022-10-06T11:47:35.193Z,15.97
2022-10-06T11:48:37.172Z,15.64
2022-10-06T11:49:49.517Z,15.90
2022-10-06T11:50:50.988Z,15.90
2022-10-06T11:51:55.783Z,16.19
2022-10-06T11:53:00.802Z,15.77
2022-10-06T11:54:02.315Z,15.94
2022-10-06T11:55:13.508Z,16.08
2022-10-06T11:56:37.005Z,15.87
2022-10-06T11:58:23.386Z,15.76
2022-10-06T11:59:29.840Z,15.80
2022-10-06T12:00:45.287Z,15.89
2022-10-06T12:01:52.313Z,15.87
2022-10-06T12:02:54.009Z,16.00
2022-10-06T12:04:13.218Z,15.89
2022-10-06T12:07:01.868Z,16.01
2022-10-06T12:08:12.696Z,16.00
2022-10-06T12:09:40.052Z,15.86
2022-10-06T12:10:48.989Z,16.06
2022-10-06T12:11:51.890Z,15.92
2022-10-06T12:13:07.101Z,16.07
2022-10-06T12:16:00.148Z,15.93
2022-10-06T12:17:44.196Z,16.30
2022-10-06T12:18:53.423Z,16.08
2022-10-06T12:19:59.440Z,15.99
2022-10-06T12:21:10.560Z,15.97
2022-10-06T12:22:20.920Z,15.90
2022-10-06T12:23:38.174Z,16.13
2022-10-06T12:24:44.705Z,15.96
2022-10-06T12:25:53.129Z,15.85
2022-10-06T12:27:09.009Z,15.86
2022-10-06T12:28:32.879Z,16.16
2022-10-06T12:29:42.688Z,16.56
2022-10-06T12:31:00.862Z,16.61
2022-10-06T12:32:14.440Z,16.77
2022-10-06T12:33:19.361Z,16.28
2022-10-06T12:34:43.773Z,15.95
2022-10-06T12:35:45.864Z,15.94
2022-10-06T12:36:47.305Z,16.16
2022-10-06T12:37:53.938Z,16.18
2022-10-06T12:39:21.903Z,16.28
2022-10-06T12:40:49.593Z,16.27
2022-10-06T12:41:59.667Z,16.48
2022-10-06T12:43:25.243Z,16.31
2022-10-06T12:44:29.735Z,16.62
2022-10-06T12:45:31.762Z,16.63
2022-10-06T12:46:39.099Z,16.66
2022-10-06T12:47:43.052Z,16.72
2022-10-06T12:48:55.686Z,16.76
2022-10-06T12:50:01.215Z,16.37
2022-10-06T12:51:09.241Z,16.48
2022-10-06T12:52:41.088Z,16.64
2022-10-06T12:53:49.129Z,16.58
2022-10-06T12:55:04.125Z,16.55
2022-10-06T12:56:20.472Z,16.31
2022-10-06T12:57:21.900Z,16.42
2022-10-06T12:58:27.742Z,16.39
2022-10-06T12:59:30.499Z,16.36
2022-10-06T13:00:34.315Z,16.70
2022-10-06T13:01:35.830Z,16.95
2022-10-06T13:02:37.345Z,17.13
2022-10-06T13:03:39.502Z,17.19
2022-10-06T13:04:45.309Z,17.24
2022-10-06T13:05:51.137Z,17.23
2022-10-06T13:06:52.661Z,17.31
2022-10-06T13:07:58.531Z,17.40
2022-10-06T13:09:06.487Z,17.43
2022-10-06T13:10:18.043Z,17.50
2022-10-06T13:11:21.196Z,17.35
2022-10-06T13:12:26.336Z,17.52
2022-10-06T13:13:27.797Z,17.34
2022-10-06T13:14:29.280Z,17.32
2022-10-06T13:16:40.515Z,17.07
2022-10-06T13:17:44.063Z,16.96
2022-10-06T13:18:46.189Z,17.02
2022-10-06T13:19:49.007Z,16.96
2022-10-06T13:20:52.403Z,17.34
2022-10-06T13:21:54.415Z,17.27
2022-10-06T13:22:58.298Z,16.79
2022-10-06T13:23:59.812Z,16.64
2022-10-06T13:25:01.652Z,16.57
2022-10-06T13:26:04.827Z,16.63
2022-10-06T13:27:06.297Z,16.61
2022-10-06T13:28:20.260Z,16.68
2022-10-06T13:29:24.237Z,16.65
2022-10-06T13:30:25.935Z,16.93
2022-10-06T13:31:29.141Z,16.50
2022-10-06T13:32:30.554Z,16.36
2022-10-06T13:33:36.352Z,16.27
2022-10-06T13:34:37.927Z,16.10
2022-10-06T13:35:40.872Z,15.96
2022-10-06T13:36:44.957Z,15.89
2022-10-06T13:37:46.836Z,16.02
2022-10-06T13:38:48.364Z,15.88
2022-10-06T13:39:49.816Z,15.89
2022-10-06T13:41:06.609Z,15.96
2022-10-06T13:42:10.764Z,15.92
2022-10-06T13:43:18.185Z,15.92
2022-10-06T13:44:31.624Z,15.96
2022-10-06T13:45:33.117Z,16.08
2022-10-06T13:46:39.380Z,16.14
2022-10-06T13:47:41.126Z,16.18
2022-10-06T13:48:47.496Z,16.21
2022-10-06T13:49:53.123Z,16.40
2022-10-06T13:50:56.231Z,16.14
2022-10-06T13:52:00.427Z,15.96
2022-10-06T13:53:01.913Z,16.22
2022-10-06T13:54:18.645Z,16.02
2022-10-06T13:55:22.934Z,16.06
2022-10-06T13:56:36.392Z,16.26